createdAt,value
2022-10-03T00:00:43.213Z,64.40
2022-10-03T00:03:58.307Z,63.01
2022-10-03T00:07:16.542Z,62.03
2022-10-03T00:10:28.918Z,60.34
2022-10-03T00:13:41.659Z,63.83
2022-10-03T00:16:49.898Z,64.80
2022-10-03T00:20:03.891Z,68.59
2022-10-03T00:23:12.384Z,70.52
2022-10-03T00:26:30.773Z,69.13
2022-10-03T00:30:02.938Z,67.26
2022-10-03T00:33:17.345Z,66.70
2022-10-03T00:36:27.125Z,64.56
2022-10-03T00:39:50.580Z,63.57
2022-10-03T00:43:15.958Z,65.37
2022-10-03T00:46:54.060Z,64.88
2022-10-03T00:50:20.772Z,66.16
2022-10-03T00:53:37.923Z,66.94
2022-10-03T00:56:55.911Z,64.91
2022-10-03T01:00:17.744Z,63.14
2022-10-03T01:03:40.638Z,65.12
2022-10-03T01:06:50.248Z,66.59
2022-10-03T01:10:09.530Z,65.97
2022-10-03T01:13:32.666Z,65.86
2022-10-03T01:16:45.592Z,63.57
2022-10-03T01:20:08.480Z,63.62
2022-10-03T01:23:47.080Z,64.46
2022-10-03T01:27:02.694Z,66.69
2022-10-03T01:30:24.861Z,65.44
2022-10-03T01:33:35.060Z,63.17
2022-10-03T01:36:46.488Z,67.09
2022-10-03T01:39:55.476Z,67.90
2022-10-03T01:43:07.297Z,71.82
2022-10-03T01:46:18.968Z,68.35
2022-10-03T01:49:28.217Z,68.95
2022-10-03T01:52:40.171Z,72.26
2022-10-03T01:55:50.748Z,71.87
2022-10-03T01:59:01.040Z,70.91
2022-10-03T02:02:11.243Z,70.93
2022-10-03T02:05:20.627Z,72.94
2022-10-03T02:08:33.654Z,71.55
2022-10-03T02:11:40.724Z,68.62
2022-10-03T02:14:55.582Z,67.15
2022-10-03T02:18:13.078Z,65.24
2022-10-03T02:21:20.583Z,64.99
2022-10-03T02:24:38.510Z,61.88
2022-10-03T02:28:04.417Z,61.29
2022-10-03T02:31:44.910Z,63.46
2022-10-03T02:35:14.998Z,62.70
2022-10-03T02:38:48.207Z,64.24
2022-10-03T02:42:25.179Z,60.22
2022-10-03T02:45:51.481Z,58.51
2022-10-03T02:49:14.660Z,59.06
2022-10-03T02:52:46.063Z,61.34
2022-10-03T02:56:28.141Z,74.37
2022-10-03T02:59:56.207Z,79.37
2022-10-03T03:03:43.275Z,80.36
2022-10-03T03:06:59.508Z,79.06
2022-10-03T03:10:34.246Z,77.47
2022-10-03T03:14:02.224Z,79.52
2022-10-03T03:17:21.742Z,77.67
2022-10-03T03:20:41.218Z,81.21
2022-10-03T03:24:03.074Z,78.36
2022-10-03T03:27:35.196Z,82.30
2022-10-03T03:30:45.726Z,84.61
2022-10-03T03:34:00.056Z,85.17
2022-10-03T03:37:10.298Z,90.06
2022-10-03T03:40:32.376Z,87.03
2022-10-03T03:43:45.356Z,86.76
2022-10-03T03:47:05.363Z,85.37
2022-10-03T03:50:28.077Z,81.92
2022-10-03T03:53:55.278Z,80.38
2022-10-03T03:57:14.410Z,77.19
2022-10-03T04:00:21.877Z,75.38
2022-10-03T04:03:45.649Z,77.44
2022-10-03T04:06:58.244Z,76.30
2022-10-03T04:10:22.696Z,76.32
2022-10-03T04:13:40.395Z,77.40
2022-10-03T04:17:16.288Z,80.64
2022-10-03T04:20:36.918Z,78.90
2022-10-03T04:23:58.159Z,78.88
2022-10-03T04:27:19.346Z,78.34
2022-10-03T04:30:29.673Z,79.32
2022-10-03T04:33:49.130Z,81.29
2022-10-03T04:37:16.104Z,80.09
2022-10-03T04:40:31.793Z,79.34
2022-10-03T04:43:43.858Z,82.10
2022-10-03T04:46:55.385Z,81.93
2022-10-03T04:50:04.232Z,84.46
2022-10-03T04:53:22.871Z,83.73
2022-10-03T04:56:40.347Z,82.56
2022-10-03T04:59:52.662Z,83.78
2022-10-03T05:03:04.775Z,84.10
2022-10-03T05:06:25.890Z,80.74
2022-10-03T05:09:38.485Z,81.93
2022-10-03T05:12:48.375Z,82.22
2022-10-03T05:16:01.597Z,80.72
2022-10-03T05:19:23.847Z,81.12
2022-10-03T05:22:40.309Z,82.10
2022-10-03T05:25:53.515Z,83.10
2022-10-03T05:29:06.118Z,79.56
2022-10-03T05:32:21.185Z,81.01
2022-10-03T05:35:43.755Z,81.84
2022-10-03T05:39:35.257Z,80.56
2022-10-03T05:43:01.600Z,83.04
2022-10-03T05:46:15.538Z,83.16
2022-10-03T05:49:40.415Z,83.78
2022-10-03T05:53:00.420Z,81.24
2022-10-03T05:56:09.580Z,81.77
2022-10-03T05:59:42.606Z,81.18
2022-10-03T06:03:22.934Z,79.80
2022-10-03T06:06:34.735Z,78.46
2022-10-03T06:10:04.489Z,78.76
2022-10-03T06:13:14.688Z,77.98
2022-10-03T06:16:31.759Z,77.92
2022-10-03T06:19:49.722Z,77.26
2022-10-03T06:23:53.865Z,77.19
2022-10-03T06:27:19.283Z,77.86
2022-10-03T06:30:27.243Z,78.73
2022-10-03T06:34:19.604Z,76.31
2022-10-03T06:37:58.076Z,78.57
2022-10-03T06:41:46.597Z,76.91
2022-10-03T06:45:16.543Z,77.41
2022-10-03T06:48:49.850Z,77.36
2022-10-03T06:52:08.485Z,78.17
2022-10-03T06:55:43.148Z,77.30
2022-10-03T06:59:05.397Z,77.48
2022-10-03T07:02:39.765Z,77.94
2022-10-03T07:06:15.249Z,74.34
2022-10-03T07:09:53.895Z,76.85
2022-10-03T07:13:13.259Z,73.81
2022-10-03T07:16:45.902Z,73.25
2022-10-03T07:20:39.324Z,72.15
2022-10-03T07:24:07.287Z,70.57
2022-10-03T07:27:44.489Z,73.24
2022-10-03T07:31:08.104Z,72.40
2022-10-03T07:34:49.574Z,73.44
2022-10-03T07:38:38.484Z,73.58
2022-10-03T07:42:00.171Z,74.51
2022-10-03T07:45:34.785Z,73.35
2022-10-03T07:49:03.478Z,73.66
2022-10-03T07:52:34.710Z,73.97
2022-10-03T07:55:55.650Z,73.08
2022-10-03T07:59:12.754Z,72.31
2022-10-03T08:02:43.049Z,67.80
2022-10-03T08:06:12.618Z,68.35
2022-10-03T08:09:43.429Z,68.65
2022-10-03T08:13:02.465Z,67.73
2022-10-03T08:16:22.374Z,68.58
2022-10-03T08:19:43.130Z,68.45
2022-10-03T08:23:00.457Z,68.11
2022-10-03T08:26:18.125Z,67.77
2022-10-03T08:30:03.484Z,67.36
2022-10-03T08:33:38.207Z,66.58
2022-10-03T08:37:22.102Z,66.02
2022-10-03T08:41:07.180Z,65.53
2022-10-03T08:44:46.730Z,65.30
2022-10-03T08:48:25.028Z,65.87
2022-10-03T08:52:13.242Z,63.54
2022-10-03T08:55:42.860Z,65.60
2022-10-03T08:59:15.204Z,65.51
2022-10-03T09:02:42.066Z,63.97
2022-10-03T09:06:19.495Z,63.39
2022-10-03T09:09:53.619Z,62.58
2022-10-03T09:13:48.177Z,62.48
2022-10-03T09:17:25.776Z,61.86
2022-10-03T09:21:06.963Z,62.16
2022-10-03T09:24:41.588Z,61.87
2022-10-03T09:28:25.313Z,62.15
2022-10-03T09:32:01.713Z,63.46
2022-10-03T09:35:42.777Z,64.06
2022-10-03T09:39:02.117Z,61.68
2022-10-03T09:42:27.824Z,60.49
2022-10-03T09:46:12.115Z,59.59
2022-10-03T09:49:40.292Z,58.94
2022-10-03T09:53:06.934Z,60.02
2022-10-03T09:56:37.333Z,61.04
2022-10-03T09:59:59.712Z,61.37
2022-10-03T10:03:53.202Z,59.08
2022-10-03T10:07:41.979Z,60.11
2022-10-03T10:11:14.915Z,56.98
2022-10-03T10:14:48.455Z,55.90
2022-10-03T10:18:17.295Z,55.70
2022-10-03T10:22:02.339Z,57.33
2022-10-03T10:25:26.668Z,56.37
2022-10-03T10:29:00.022Z,56.11
2022-10-03T10:32:57.027Z,56.49
2022-10-03T10:36:47.949Z,53.28
2022-10-03T10:40:28.816Z,53.56
2022-10-03T10:44:06.299Z,54.74
2022-10-03T10:47:58.379Z,53.92
2022-10-03T10:51:39.262Z,54.57
2022-10-03T10:55:20.455Z,52.37
2022-10-03T10:59:05.405Z,53.36
2022-10-03T11:02:38.133Z,54.69
2022-10-03T11:06:43.475Z,51.12
2022-10-03T11:10:31.057Z,52.77
2022-10-03T11:14:11.092Z,52.75
2022-10-03T11:17:56.267Z,54.31
2022-10-03T11:21:36.591Z,53.93
2022-10-03T11:25:16.143Z,53.18
2022-10-03T11:28:55.238Z,54.96
2022-10-03T11:32:50.038Z,55.92
2022-10-03T11:36:43.233Z,56.50
2022-10-03T11:39:51.004Z,58.12
2022-10-03T11:43:03.117Z,58.03
2022-10-03T11:46:22.241Z,56.11
2022-10-03T11:49:44.828Z,57.53
2022-10-03T11:53:02.948Z,61.51
2022-10-03T11:56:29.776Z,60.73
2022-10-03T12:00:00.389Z,60.58
2022-10-03T12:03:14.455Z,62.45
2022-10-03T12:06:47.491Z,67.93
2022-10-03T12:10:07.287Z,70.50
2022-10-03T12:13:17.157Z,74.31
2022-10-03T12:16:27.793Z,71.49
2022-10-03T12:19:34.602Z,74.90
2022-10-03T12:22:46.706Z,71.42
2022-10-03T12:25:52.464Z,70.89
2022-10-03T12:28:58.698Z,69.91
2022-10-03T12:32:12.376Z,64.06
2022-10-03T12:35:33.353Z,64.39
2022-10-03T12:38:53.040Z,63.79
2022-10-03T12:42:06.136Z,65.55
2022-10-03T12:45:17.492Z,64.43
2022-10-03T12:48:35.392Z,63.72
2022-10-03T12:51:52.220Z,62.53
2022-10-03T12:55:05.954Z,64.52
2022-10-03T12:58:21.104Z,65.35
2022-10-03T13:01:36.310Z,64.57
2022-10-03T13:04:47.671Z,67.65
2022-10-03T13:07:56.747Z,69.66
2022-10-03T13:11:13.259Z,71.64
2022-10-03T13:14:28.232Z,71.97
2022-10-03T13:17:40.863Z,75.45
2022-10-03T13:20:51.144Z,78.05
2022-10-03T13:23:58.610Z,81.33
2022-10-03T13:27:17.105Z,82.18
2022-10-03T13:30:24.116Z,80.58
2022-10-03T13:33:32.292Z,75.98
2022-10-03T13:36:40.822Z,74.50
2022-10-03T13:39:49.620Z,71.83
2022-10-03T13:42:53.590Z,75.99
2022-10-03T13:45:57.958Z,73.15
2022-10-03T13:49:11.880Z,76.11
2022-10-03T13:52:23.636Z,74.77
2022-10-03T13:55:32.699Z,72.30
2022-10-03T13:58:46.485Z,70.18
2022-10-03T14:02:01.009Z,68.48
2022-10-03T14:05:24.740Z,71.73
2022-10-03T14:08:59.146Z,69.58
2022-10-03T14:12:11.306Z,72.16
2022-10-03T14:15:25.291Z,70.65
2022-10-03T14:18:41.358Z,69.77
2022-10-03T14:22:07.961Z,69.24
2022-10-03T14:25:22.428Z,68.93
2022-10-03T14:28:29.448Z,67.59
2022-10-03T14:31:36.496Z,68.82
2022-10-03T14:34:53.133Z,65.93
2022-10-03T14:38:03.204Z,64.58
2022-10-03T14:41:11.375Z,64.57
2022-10-03T14:44:20.129Z,63.79
2022-10-03T14:47:23.908Z,64.63
2022-10-03T14:50:30.103Z,63.48
2022-10-03T14:53:34.635Z,63.46
2022-10-03T14:56:44.374Z,65.95
2022-10-03T14:59:57.862Z,67.15
2022-10-03T15:03:20.522Z,66.91
2022-10-03T15:06:50.298Z,65.30
2022-10-03T15:09:57.602Z,67.38
2022-10-03T15:13:06.255Z,65.21
2022-10-03T15:16:10.495Z,63.72
2022-10-03T15:19:17.810Z,65.21
2022-10-03T15:22:32.594Z,62.59
2022-10-03T15:25:39.469Z,62.14
2022-10-03T15:28:46.075Z,62.22
2022-10-03T15:31:49.904Z,61.56
2022-10-03T15:34:57.988Z,59.47
2022-10-03T15:38:17.428Z,58.41
2022-10-03T15:41:28.040Z,59.40
2022-10-03T15:44:39.036Z,58.20
2022-10-03T15:47:46.531Z,59.38
2022-10-03T15:50:53.130Z,60.46
2022-10-03T15:53:59.606Z,60.43
2022-10-03T15:57:07.093Z,59.26
2022-10-03T16:00:21.564Z,59.51
2022-10-03T16:03:30.045Z,59.65
2022-10-03T16:06:47.538Z,59.53
2022-10-03T16:09:56.299Z,58.40
2022-10-03T16:13:07.856Z,59.43
2022-10-03T16:16:19.950Z,56.73
2022-10-03T16:19:39.387Z,56.16
2022-10-03T16:22:45.479Z,57.44
2022-10-03T16:25:53.725Z,57.43
2022-10-03T16:29:11.687Z,57.75
2022-10-03T16:32:18.528Z,57.44
2022-10-03T16:35:33.692Z,57.52
2022-10-03T16:38:38.474Z,58.89
2022-10-03T16:41:44.011Z,59.39
2022-10-03T16:44:55.365Z,58.37
2022-10-03T16:48:19.414Z,59.50
2022-10-03T16:51:25.740Z,59.47
2022-10-03T16:54:29.068Z,59.04
2022-10-03T16:57:41.124Z,58.78
2022-10-03T17:01:09.409Z,58.05
2022-10-03T17:04:23.634Z,58.26
2022-10-03T17:07:31.671Z,56.58
2022-10-03T17:10:38.076Z,57.03
2022-10-03T17:13:46.881Z,56.24
2022-10-03T17:17:02.707Z,57.07
2022-10-03T17:20:14.085Z,57.86
2022-10-03T17:23:27.740Z,57.79
2022-10-03T17:26:37.574Z,56.99
2022-10-03T17:29:49.043Z,57.85
2022-10-03T17:32:58.081Z,59.52
2022-10-03T17:36:22.979Z,58.43
2022-10-03T17:39:39.942Z,59.40
2022-10-03T17:42:45.487Z,59.23
2022-10-03T17:45:56.343Z,58.50
2022-10-03T17:49:08.024Z,58.57
2022-10-03T17:52:23.489Z,58.28
2022-10-03T17:55:30.640Z,58.39
2022-10-03T17:58:34.409Z,60.72
2022-10-03T18:01:43.335Z,60.42
2022-10-03T18:04:55.441Z,60.74
2022-10-03T18:08:04.240Z,60.16
2022-10-03T18:11:23.656Z,59.88
2022-10-03T18:14:38.285Z,59.40
2022-10-03T18:18:00.281Z,59.38
2022-10-03T18:21:08.685Z,58.80
2022-10-03T18:24:24.927Z,59.63
2022-10-03T18:27:53.335Z,59.95
2022-10-03T18:30:59.860Z,60.35
2022-10-03T18:34:10.358Z,59.38
2022-10-03T18:37:52.561Z,57.65
2022-10-03T18:40:59.332Z,57.65
2022-10-03T18:44:03.105Z,58.51
2022-10-03T18:47:18.553Z,57.81
2022-10-03T18:50:27.528Z,57.84
2022-10-03T18:53:36.336Z,57.63
2022-10-03T18:56:41.770Z,59.67
2022-10-03T18:59:51.644Z,58.06
2022-10-03T19:02:57.464Z,58.59
2022-10-03T19:06:06.032Z,58.31
2022-10-03T19:09:19.618Z,59.47
2022-10-03T19:12:24.639Z,59.26
2022-10-03T19:15:42.573Z,60.03
2022-10-03T19:18:55.419Z,60.72
2022-10-03T19:22:04.096Z,60.74
2022-10-03T19:25:17.366Z,60.52
2022-10-03T19:28:28.287Z,61.24
2022-10-03T19:31:36.486Z,61.31
2022-10-03T19:34:41.119Z,60.61
2022-10-03T19:37:47.290Z,60.29
2022-10-03T19:40:59.064Z,61.02
2022-10-03T19:44:10.734Z,60.26
2022-10-03T19:47:17.992Z,59.60
2022-10-03T19:50:23.036Z,60.01
2022-10-03T19:53:25.630Z,60.51
2022-10-03T19:56:33.300Z,59.80
2022-10-03T19:59:46.304Z,60.34
2022-10-03T20:02:55.311Z,61.06
2022-10-03T20:06:01.447Z,60.67
2022-10-03T20:09:07.235Z,60.68
2022-10-03T20:12:12.284Z,60.08
2022-10-03T20:15:23.119Z,61.04
2022-10-03T20:18:30.251Z,61.37
2022-10-03T20:21:33.813Z,61.72
2022-10-03T20:24:38.922Z,62.89
2022-10-03T20:27:44.255Z,63.73
2022-10-03T20:30:50.542Z,64.00
2022-10-03T20:33:54.620Z,64.17
2022-10-03T20:37:09.606Z,63.12
2022-10-03T20:40:28.004Z,63.09
2022-10-03T20:43:41.673Z,64.74
2022-10-03T20:46:49.782Z,65.46
2022-10-03T20:49:55.599Z,63.65
2022-10-03T20:53:00.779Z,64.27
2022-10-03T20:56:08.311Z,64.44
2022-10-03T20:59:13.883Z,65.31
2022-10-03T21:02:26.834Z,65.41
2022-10-03T21:05:35.413Z,67.12
2022-10-03T21:08:41.223Z,67.26
2022-10-03T21:11:47.710Z,67.12
2022-10-03T21:14:56.892Z,68.26
2022-10-03T21:18:02.213Z,67.22
2022-10-03T21:21:12.266Z,67.70
2022-10-03T21:24:20.578Z,68.04
2022-10-03T21:27:25.133Z,66.20
2022-10-03T21:30:49.698Z,65.41
2022-10-03T21:34:00.863Z,63.46
2022-10-03T21:37:11.463Z,64.94
2022-10-03T21:40:27.253Z,65.84
2022-10-03T21:43:43.007Z,65.88
2022-10-03T21:46:57.365Z,66.82
2022-10-03T21:50:06.210Z,65.33
2022-10-03T21:53:19.177Z,63.97
2022-10-03T21:56:35.198Z,64.66
2022-10-03T21:59:55.942Z,64.17
2022-10-03T22:03:07.700Z,65.41
2022-10-03T22:06:20.031Z,65.32
2022-10-03T22:09:22.718Z,63.49
2022-10-03T22:12:28.960Z,63.50
2022-10-03T22:15:39.904Z,65.12
2022-10-03T22:19:07.584Z,64.73
2022-10-03T22:22:21.392Z,65.28
2022-10-03T22:25:39.115Z,66.21
2022-10-03T22:28:53.274Z,65.50
2022-10-03T22:32:00.775Z,65.96
2022-10-03T22:35:18.126Z,65.31
2022-10-03T22:38:27.553Z,66.44
2022-10-03T22:41:32.024Z,65.89
2022-10-03T22:44:38.096Z,66.31
2022-10-03T22:47:42.297Z,66.00
2022-10-03T22:50:45.730Z,64.71
2022-10-03T22:53:53.980Z,64.45
2022-10-03T22:57:01.200Z,63.40
2022-10-03T23:00:07.971Z,63.44
2022-10-03T23:03:14.908Z,64.77
2022-10-03T23:06:51.681Z,63.68
2022-10-03T23:10:06.060Z,65.64
2022-10-03T23:13:15.661Z,66.32
2022-10-03T23:16:31.879Z,64.91
2022-10-03T23:19:48.876Z,63.28
2022-10-03T23:22:56.852Z,63.99
2022-10-03T23:26:12.591Z,64.28
2022-10-03T23:29:17.618Z,63.86
2022-10-03T23:32:54.442Z,64.81
2022-10-03T23:35:57.075Z,64.24
2022-10-03T23:39:01.324Z,64.05
2022-10-03T23:42:09.676Z,65.78
2022-10-03T23:45:14.733Z,63.76
2022-10-03T23:48:22.192Z,63.92
2022-10-03T23:51:30.251Z,64.22
2022-10-03T23:54:33.632Z,64.23
2022-10-03T23:57:39.640Z,64.54
